Time;durP1;ratioP1;P1;durP2;ratioP2;P2;SDS_P1;SDS_P2;PMS_P1;PMS_P2;Temp;Humidity;BMP_temperature;BMP_pressure;BME280_temperature;BME280_humidity;BME280_pressure;Samples;Min_cycle;Max_cycle;Signal;HPM_P1;HPM_P2
2023/08/28 00:00:20;;;;;;;0.30;0.30;;;22.40;71.10;;;;;;5026123;28;20124;-76
2023/08/28 00:02:46;;;;;;;0.20;0.20;;;22.40;71.40;;;;;;5024282;28;21407;-76
2023/08/28 00:05:11;;;;;;;0.40;0.40;;;22.40;71.70;;;;;;5025066;28;20091;-76
2023/08/28 00:07:37;;;;;;;0.88;0.50;;;22.40;71.90;;;;;;5027196;28;20072;-76
2023/08/28 00:10:03;;;;;;;0.55;0.30;;;22.40;71.80;;;;;;5024313;28;20049;-77
2023/08/28 00:12:29;;;;;;;0.30;0.25;;;22.40;71.80;;;;;;5028566;28;20033;-76
2023/08/28 00:14:54;;;;;;;0.55;0.30;;;22.40;71.60;;;;;;5023814;28;20037;-78
2023/08/28 00:17:20;;;;;;;0.73;0.50;;;22.40;71.50;;;;;;5026634;28;20048;-76
2023/08/28 00:19:46;;;;;;;0.40;0.30;;;22.40;71.70;;;;;;5026987;28;20049;-76
2023/08/28 00:22:11;;;;;;;0.30;0.30;;;22.40;71.70;;;;;;5025805;28;20168;-76
2023/08/28 00:24:37;;;;;;;1.10;0.50;;;22.40;71.50;;;;;;5026305;28;20384;-76
2023/08/28 00:27:02;;;;;;;0.77;0.20;;;22.40;71.50;;;;;;5021603;28;20098;-76
2023/08/28 00:29:28;;;;;;;0.47;0.30;;;22.40;71.50;;;;;;5023163;28;20046;-76
2023/08/28 00:31:53;;;;;;;0.40;0.30;;;22.40;71.40;;;;;;5024181;28;20046;-77
2023/08/28 00:34:19;;;;;;;0.35;0.35;;;22.40;72.10;;;;;;5023735;28;20060;-76
2023/08/28 00:36:44;;;;;;;0.40;0.30;;;22.40;71.40;;;;;;5025041;28;20041;-76
2023/08/28 00:39:10;;;;;;;0.30;0.30;;;22.40;71.40;;;;;;5022810;28;20416;-76
2023/08/28 00:41:36;;;;;;;0.40;0.38;;;22.40;71.30;;;;;;5026455;28;20037;-76
2023/08/28 00:44:03;;;;;;;0.30;0.28;;;22.40;71.30;;;;;;5024332;28;20038;-77
2023/08/28 00:46:28;;;;;;;0.20;0.20;;;22.40;71.20;;;;;;5025532;28;20114;-76
2023/08/28 00:48:54;;;;;;;1.95;0.40;;;22.40;71.20;;;;;;5025106;28;20418;-76
2023/08/28 00:51:19;;;;;;;0.30;0.30;;;22.40;71.20;;;;;;5022004;28;20052;-76
2023/08/28 00:53:45;;;;;;;0.25;0.25;;;22.40;71.20;;;;;;5010786;28;20044;-76
2023/08/28 00:56:10;;;;;;;0.30;0.20;;;22.30;71.10;;;;;;5022802;28;20041;-76
2023/08/28 00:58:36;;;;;;;0.35;0.30;;;22.30;71.10;;;;;;5025039;28;20140;-76
2023/08/28 01:01:01;;;;;;;0.20;0.20;;;22.30;71.00;;;;;;5018654;28;20091;-77
2023/08/28 01:03:27;;;;;;;0.50;0.20;;;22.30;71.00;;;;;;5025050;28;20041;-76
2023/08/28 01:06:04;;;;;;;0.30;0.25;;;22.30;71.00;;;;;;5023006;28;20048;-76
2023/08/28 01:08:34;;;;;;;0.30;0.30;;;22.40;71.10;;;;;;5022774;28;20038;-76
2023/08/28 01:11:27;;;;;;;1.45;0.30;;;22.30;71.00;;;;;;5023470;28;20064;-77
2023/08/28 01:14:00;;;;;;;0.20;0.20;;;22.40;71.00;;;;;;5024039;28;20434;-76
2023/08/28 01:16:26;;;;;;;0.47;0.40;;;22.40;71.20;;;;;;5025013;28;20050;-76
2023/08/28 01:18:51;;;;;;;0.40;0.20;;;22.30;71.00;;;;;;5023859;28;20546;-76
2023/08/28 01:21:17;;;;;;;0.30;0.20;;;22.30;71.10;;;;;;5021722;28;20472;-76
2023/08/28 01:23:54;;;;;;;0.40;0.30;;;22.30;70.90;;;;;;5006601;28;20486;-76
2023/08/28 01:26:20;;;;;;;0.30;0.30;;;22.30;70.90;;;;;;5021976;28;20045;-76
2023/08/28 01:28:45;;;;;;;0.20;0.20;;;22.30;71.00;;;;;;5007991;28;20477;-76
2023/08/28 01:31:11;;;;;;;0.10;0.10;;;22.30;70.80;;;;;;5023093;28;20057;-76
2023/08/28 01:33:36;;;;;;;0.20;0.15;;;22.30;70.90;;;;;;5025536;28;20578;-76
2023/08/28 01:36:11;;;;;;;0.20;0.20;;;22.30;71.00;;;;;;5022881;28;20427;-76
2023/08/28 01:38:47;;;;;;;0.50;0.35;;;22.30;70.80;;;;;;5023364;28;20053;-76
2023/08/28 01:41:12;;;;;;;0.35;0.30;;;22.30;70.70;;;;;;5002916;28;20045;-76
2023/08/28 01:43:40;;;;;;;0.30;0.30;;;22.30;70.70;;;;;;5022990;28;20056;-76
2023/08/28 01:46:06;;;;;;;0.88;0.30;;;22.30;70.80;;;;;;5023818;28;20077;-76
2023/08/28 01:48:37;;;;;;;0.38;0.30;;;22.30;70.80;;;;;;5025915;28;20076;-76
2023/08/28 01:51:03;;;;;;;0.30;0.30;;;22.30;70.80;;;;;;5021857;28;20042;-76
2023/08/28 01:53:28;;;;;;;0.20;0.20;;;22.30;70.90;;;;;;5021918;28;20407;-76
2023/08/28 01:56:09;;;;;;;0.30;0.30;;;22.30;70.90;;;;;;5024544;28;20041;-76
2023/08/28 01:58:44;;;;;;;0.22;0.20;;;22.30;70.80;;;;;;5024316;28;20049;-76
2023/08/28 02:01:09;;;;;;;0.20;0.20;;;22.30;70.90;;;;;;5008327;28;20514;-77
2023/08/28 02:03:38;;;;;;;0.47;0.45;;;22.30;71.00;;;;;;5040257;28;20048;-76
2023/08/28 02:06:03;;;;;;;0.30;0.30;;;22.30;70.70;;;;;;5022521;28;20069;-77
2023/08/28 02:08:29;;;;;;;0.17;0.17;;;22.30;70.70;;;;;;5025580;28;20092;-76
2023/08/28 02:10:55;;;;;;;0.10;0.10;;;22.30;70.70;;;;;;5024844;28;20054;-76
2023/08/28 02:13:21;;;;;;;0.15;0.10;;;22.30;70.70;;;;;;5023292;28;20411;-76
2023/08/28 02:15:46;;;;;;;0.20;0.20;;;22.30;70.70;;;;;;5008985;28;20049;-76
2023/08/28 02:18:12;;;;;;;0.35;0.30;;;22.30;70.90;;;;;;5023310;28;20057;-76
2023/08/28 02:20:38;;;;;;;0.20;0.10;;;22.30;70.70;;;;;;5023779;28;20042;-76
2023/08/28 02:23:03;;;;;;;0.13;0.13;;;22.30;70.70;;;;;;5026592;28;20049;-76
2023/08/28 02:25:29;;;;;;;0.20;0.20;;;22.30;70.60;;;;;;5023411;28;20561;-76
2023/08/28 02:27:54;;;;;;;0.40;0.30;;;22.30;70.70;;;;;;5024491;28;20124;-76
2023/08/28 02:30:20;;;;;;;0.47;0.20;;;22.30;70.70;;;;;;5026842;28;20037;-76
2023/08/28 02:32:45;;;;;;;0.30;0.30;;;22.30;70.70;;;;;;5026381;28;20041;-76
2023/08/28 02:35:11;;;;;;;0.20;0.20;;;22.30;71.70;;;;;;5024600;28;20092;-76
2023/08/28 02:37:37;;;;;;;0.20;0.20;;;22.30;70.90;;;;;;5027239;28;20098;-76
2023/08/28 02:40:04;;;;;;;0.20;0.20;;;22.30;70.80;;;;;;5024621;28;20049;-77
2023/08/28 02:42:29;;;;;;;0.40;0.35;;;22.30;70.90;;;;;;5028752;28;20049;-76
2023/08/28 02:44:55;;;;;;;0.25;0.20;;;22.30;71.70;;;;;;5029000;28;20052;-76
2023/08/28 02:47:21;;;;;;;0.73;0.20;;;22.30;71.00;;;;;;5009835;28;20041;-76
2023/08/28 02:49:47;;;;;;;0.17;0.15;;;22.30;70.90;;;;;;5028918;28;20037;-76
2023/08/28 02:52:12;;;;;;;0.40;0.30;;;22.30;71.10;;;;;;5027236;28;20411;-77
2023/08/28 02:54:38;;;;;;;0.10;0.10;;;22.30;70.90;;;;;;5026717;28;20053;-76
2023/08/28 02:57:04;;;;;;;0.17;0.17;;;22.30;70.80;;;;;;5028216;28;20540;-77
2023/08/28 02:59:30;;;;;;;0.20;0.20;;;22.20;70.80;;;;;;5024418;28;20100;-76
2023/08/28 03:01:56;;;;;;;0.20;0.10;;;22.30;70.90;;;;;;5025728;28;20522;-76
2023/08/28 03:04:21;;;;;;;0.40;0.13;;;22.30;70.90;;;;;;5008057;28;20528;-76
2023/08/28 03:06:47;;;;;;;0.20;0.10;;;22.20;70.80;;;;;;5026142;28;20419;-76
2023/08/28 03:09:12;;;;;;;0.30;0.30;;;22.30;70.90;;;;;;5025450;28;20065;-76
2023/08/28 03:11:38;;;;;;;0.20;0.10;;;22.30;70.80;;;;;;5021965;28;20080;-76
2023/08/28 03:14:03;;;;;;;0.20;0.20;;;22.30;70.80;;;;;;5028436;28;20037;-76
2023/08/28 03:16:29;;;;;;;0.45;0.20;;;22.20;70.80;;;;;;5027279;28;20530;-76
2023/08/28 03:18:55;;;;;;;0.10;0.10;;;22.30;70.90;;;;;;5026443;28;20042;-76
2023/08/28 03:21:20;;;;;;;0.20;0.20;;;22.30;70.90;;;;;;5024968;28;20068;-76
2023/08/28 03:23:46;;;;;;;0.40;0.40;;;22.30;71.60;;;;;;5026725;28;20086;-76
2023/08/28 03:26:11;;;;;;;0.22;0.20;;;22.20;70.80;;;;;;5024922;28;20053;-77
2023/08/28 03:28:37;;;;;;;0.20;0.20;;;22.30;70.90;;;;;;5026055;28;20094;-76
2023/08/28 03:31:03;;;;;;;0.25;0.25;;;22.20;70.80;;;;;;5027055;28;20054;-76
2023/08/28 03:33:28;;;;;;;0.20;0.20;;;22.30;71.00;;;;;;5027060;28;20144;-76
2023/08/28 03:35:54;;;;;;;0.28;0.28;;;22.20;70.90;;;;;;5023918;28;20420;-76
2023/08/28 03:38:19;;;;;;;0.10;0.10;;;22.20;70.80;;;;;;5024997;28;20593;-76
2023/08/28 03:40:45;;;;;;;0.20;0.20;;;22.30;71.70;;;;;;5027740;28;20045;-76
2023/08/28 03:43:11;;;;;;;0.20;0.20;;;22.20;71.80;;;;;;5023882;28;20045;-77
2023/08/28 03:45:37;;;;;;;0.15;0.15;;;22.20;71.70;;;;;;5027786;28;20072;-76
2023/08/28 03:48:03;;;;;;;0.13;0.10;;;22.20;70.70;;;;;;5024151;28;20041;-76
2023/08/28 03:50:30;;;;;;;0.20;0.20;;;22.20;70.60;;;;;;5025860;28;20084;-76
2023/08/28 03:52:59;;;;;;;0.20;0.10;;;22.30;70.80;;;;;;5025655;28;20050;-76
2023/08/28 03:55:25;;;;;;;0.45;0.13;;;22.20;71.50;;;;;;5025334;28;20056;-76
2023/08/28 03:57:50;;;;;;;0.20;0.20;;;22.20;70.80;;;;;;5028588;28;20054;-76
2023/08/28 04:00:18;;;;;;;0.55;0.20;;;22.20;70.60;;;;;;5022617;28;20042;-76
2023/08/28 04:02:44;;;;;;;0.22;0.20;;;22.20;70.60;;;;;;5026015;28;20041;-76
2023/08/28 04:05:11;;;;;;;0.10;0.10;;;22.20;70.70;;;;;;5007507;28;20455;-76
2023/08/28 04:07:36;;;;;;;0.10;0.10;;;22.20;70.70;;;;;;5024307;28;20033;-76
2023/08/28 04:10:02;;;;;;;0.13;0.10;;;22.20;70.80;;;;;;5021821;28;20392;-76
2023/08/28 04:12:28;;;;;;;0.10;0.10;;;22.20;70.70;;;;;;5025469;28;20050;-76
2023/08/28 04:14:53;;;;;;;0.32;0.20;;;22.20;70.70;;;;;;5025141;28;20079;-76
2023/08/28 04:17:19;;;;;;;0.10;0.10;;;22.30;71.70;;;;;;5021977;28;20570;-76
2023/08/28 04:19:45;;;;;;;0.47;0.20;;;22.20;70.90;;;;;;5022340;28;20454;-76
2023/08/28 04:22:11;;;;;;;0.20;0.20;;;22.20;70.90;;;;;;5024613;28;20573;-77
2023/08/28 04:24:37;;;;;;;0.10;0.10;;;22.20;70.90;;;;;;5022606;28;20045;-76
2023/08/28 04:27:02;;;;;;;0.10;0.10;;;22.20;70.80;;;;;;5024123;28;20041;-76
2023/08/28 04:29:28;;;;;;;0.10;0.10;;;22.20;70.90;;;;;;5023980;28;20053;-76
2023/08/28 04:31:54;;;;;;;0.25;0.25;;;22.20;70.90;;;;;;5022189;28;20099;-76
2023/08/28 04:34:19;;;;;;;0.28;0.28;;;22.20;70.90;;;;;;5039176;28;20096;-77
2023/08/28 04:36:45;;;;;;;0.10;0.08;;;22.20;70.90;;;;;;5008718;28;20045;-76
2023/08/28 04:39:10;;;;;;;0.10;0.10;;;22.20;70.90;;;;;;5022027;28;20124;-77
2023/08/28 04:41:36;;;;;;;0.20;0.10;;;22.20;70.90;;;;;;5026273;28;20041;-77
2023/08/28 04:44:01;;;;;;;0.28;0.20;;;22.20;70.80;;;;;;5024737;28;20568;-76
2023/08/28 04:46:28;;;;;;;0.30;0.22;;;22.20;70.90;;;;;;5025603;28;20132;-76
2023/08/28 04:48:53;;;;;;;0.20;0.20;;;22.20;70.90;;;;;;5006148;28;20046;-76
2023/08/28 04:51:19;;;;;;;0.20;0.20;;;22.20;71.00;;;;;;5024143;28;20041;-76
2023/08/28 04:53:45;;;;;;;0.10;0.10;;;22.20;70.90;;;;;;5025127;28;20124;-76
2023/08/28 04:56:11;;;;;;;0.20;0.20;;;22.20;70.90;;;;;;5022811;28;20041;-77
2023/08/28 04:58:36;;;;;;;0.20;0.20;;;22.20;71.00;;;;;;5025595;28;20450;-76
2023/08/28 05:01:02;;;;;;;0.10;0.10;;;22.20;71.80;;;;;;5026610;28;20076;-76
2023/08/28 05:03:27;;;;;;;0.10;0.10;;;22.20;71.00;;;;;;5024668;28;20033;-76
2023/08/28 05:05:53;;;;;;;0.35;0.10;;;22.20;71.00;;;;;;5026265;28;20474;-76
2023/08/28 05:08:19;;;;;;;0.10;0.10;;;22.20;70.90;;;;;;5008940;28;20095;-76
2023/08/28 05:10:45;;;;;;;0.10;0.10;;;22.20;70.90;;;;;;5026526;28;20101;-76
2023/08/28 05:13:10;;;;;;;0.20;0.10;;;22.20;70.90;;;;;;5025533;28;20124;-76
2023/08/28 05:15:36;;;;;;;0.20;0.10;;;22.20;70.90;;;;;;5023375;28;20613;-76
2023/08/28 05:18:02;;;;;;;0.10;0.10;;;22.20;70.90;;;;;;5008679;28;20052;-76
2023/08/28 05:20:28;;;;;;;0.17;0.10;;;22.20;71.00;;;;;;5020829;28;20045;-77
2023/08/28 05:22:54;;;;;;;0.20;0.20;;;22.20;70.90;;;;;;5024650;28;20056;-76
2023/08/28 05:25:20;;;;;;;0.10;0.10;;;22.20;71.00;;;;;;5023029;28;20053;-76
2023/08/28 05:27:45;;;;;;;0.10;0.10;;;22.20;70.90;;;;;;4671777;28;10000302;-77
2023/08/28 05:30:11;;;;;;;0.40;0.20;;;22.20;70.80;;;;;;5019574;28;20049;-76
2023/08/28 05:32:37;;;;;;;0.77;0.30;;;22.20;70.40;;;;;;5015884;28;20110;-76
2023/08/28 05:35:04;;;;;;;2.50;0.52;;;21.90;69.40;;;;;;5003722;28;20617;-75
2023/08/28 05:37:29;;;;;;;0.63;0.47;;;21.50;70.60;;;;;;5018870;28;20037;-76
2023/08/28 05:39:55;;;;;;;0.90;0.65;;;21.40;71.30;;;;;;5018358;28;20049;-76
2023/08/28 05:42:20;;;;;;;0.35;0.30;;;21.20;71.90;;;;;;5019601;28;20042;-75
2023/08/28 05:44:46;;;;;;;0.50;0.40;;;21.20;72.00;;;;;;5022930;28;20049;-86
2023/08/28 05:47:12;;;;;;;0.50;0.40;;;21.10;71.90;;;;;;5022746;28;20095;-88
2023/08/28 05:49:37;;;;;;;0.65;0.50;;;21.00;71.90;;;;;;5021645;28;20407;-87
2023/08/28 05:52:03;;;;;;;1.23;0.60;;;21.00;72.50;;;;;;5017785;28;20048;-87
2023/08/28 05:54:29;;;;;;;1.17;0.50;;;20.90;72.60;;;;;;5021591;28;20045;-87
2023/08/28 05:56:55;;;;;;;0.45;0.40;;;20.90;72.90;;;;;;5026591;28;20137;-87
2023/08/28 05:59:20;;;;;;;2.15;0.77;;;20.80;73.00;;;;;;5023206;28;20435;-86
2023/08/28 06:01:46;;;;;;;0.68;0.50;;;20.80;73.30;;;;;;5025411;28;20421;-86
2023/08/28 06:04:11;;;;;;;0.80;0.60;;;20.70;73.60;;;;;;5024412;28;20191;-86
2023/08/28 06:06:38;;;;;;;0.60;0.55;;;20.70;73.70;;;;;;5025452;28;20495;-86
2023/08/28 06:09:04;;;;;;;0.40;0.40;;;20.70;73.90;;;;;;5024576;28;20049;-87
2023/08/28 06:11:29;;;;;;;1.23;0.40;;;20.60;73.90;;;;;;5025447;28;20068;-86
2023/08/28 06:13:55;;;;;;;2.15;0.52;;;20.50;74.60;;;;;;5023001;28;20054;-87
2023/08/28 06:16:20;;;;;;;0.68;0.47;;;20.50;74.80;;;;;;5023748;28;20037;-86
2023/08/28 06:18:46;;;;;;;0.65;0.30;;;20.50;74.60;;;;;;5021379;28;20042;-87
2023/08/28 06:21:12;;;;;;;1.85;0.50;;;20.30;75.60;;;;;;5023746;28;20048;-86
2023/08/28 06:23:38;;;;;;;0.95;0.63;;;20.30;76.40;;;;;;5019484;28;20117;-86
2023/08/28 06:26:03;;;;;;;1.48;0.50;;;20.20;76.30;;;;;;5025135;28;20712;-86
2023/08/28 06:28:29;;;;;;;1.23;0.60;;;20.10;76.60;;;;;;5025704;28;20053;-87
2023/08/28 06:30:55;;;;;;;0.63;0.43;;;20.30;76.10;;;;;;5015376;28;20055;-87
2023/08/28 06:33:21;;;;;;;2.35;0.82;;;20.30;76.90;;;;;;5022548;28;20045;-85
2023/08/28 06:35:47;;;;;;;1.33;0.40;;;20.20;76.90;;;;;;5020145;28;20046;-88
2023/08/28 06:38:13;;;;;;;1.83;0.38;;;20.10;77.00;;;;;;5020069;28;20076;-87
2023/08/28 06:40:38;;;;;;;1.25;0.40;;;20.10;76.90;;;;;;5022610;28;20076;-88
2023/08/28 06:43:04;;;;;;;0.70;0.63;;;20.10;77.10;;;;;;5021436;28;20052;-85
2023/08/28 06:45:31;;;;;;;1.52;0.50;;;20.20;76.90;;;;;;5025324;28;20033;-85
2023/08/28 06:47:57;;;;;;;1.08;0.40;;;20.20;76.50;;;;;;5024383;28;20052;-87
2023/08/28 06:50:23;;;;;;;1.65;0.35;;;20.30;76.60;;;;;;5021253;28;20081;-86
2023/08/28 06:52:49;;;;;;;0.32;0.22;;;20.20;76.80;;;;;;5024429;28;20744;-83
2023/08/28 06:55:15;;;;;;;1.35;0.50;;;20.10;77.00;;;;;;5025216;28;20026;-88
2023/08/28 06:57:40;;;;;;;0.85;0.35;;;20.20;77.00;;;;;;5026446;28;20096;-88
2023/08/28 07:00:11;;;;;;;0.70;0.20;;;20.50;76.60;;;;;;5027713;28;20044;-87
2023/08/28 07:02:36;;;;;;;0.70;0.30;;;20.70;75.70;;;;;;5023436;28;20586;-88
2023/08/28 07:05:02;;;;;;;0.30;0.25;;;20.80;75.40;;;;;;5028481;28;20120;-88
2023/08/28 07:07:27;;;;;;;0.63;0.30;;;20.90;74.90;;;;;;5025811;28;20535;-88
2023/08/28 07:09:53;;;;;;;0.60;0.20;;;21.00;74.50;;;;;;5029655;28;20057;-87
2023/08/28 07:12:18;;;;;;;0.25;0.25;;;21.10;74.20;;;;;;5021199;28;20026;-85
2023/08/28 07:14:44;;;;;;;0.98;0.40;;;21.10;74.00;;;;;;5028580;28;20514;-88
2023/08/28 07:17:10;;;;;;;0.65;0.28;;;21.10;73.80;;;;;;5026698;28;20454;-88
2023/08/28 07:19:35;;;;;;;0.30;0.30;;;21.20;73.80;;;;;;5024191;28;20042;-88
2023/08/28 07:22:01;;;;;;;0.47;0.25;;;21.20;73.80;;;;;;5027007;28;20046;-89
2023/08/28 07:24:27;;;;;;;0.50;0.20;;;21.20;73.60;;;;;;5028338;28;20041;-87
2023/08/28 07:26:52;;;;;;;0.20;0.20;;;21.30;73.50;;;;;;5027310;28;20038;-89
2023/08/28 07:29:18;;;;;;;0.63;0.20;;;21.30;73.40;;;;;;5025413;28;20120;-88
2023/08/28 07:31:44;;;;;;;0.40;0.20;;;21.30;73.20;;;;;;5026741;28;20041;-88
2023/08/28 07:34:09;;;;;;;0.30;0.17;;;21.30;73.10;;;;;;5028375;28;20045;-87
2023/08/28 07:36:37;;;;;;;0.22;0.10;;;21.40;73.00;;;;;;5025242;28;20041;-88
2023/08/28 07:39:03;;;;;;;0.22;0.20;;;21.40;73.00;;;;;;5027956;28;20053;-88
2023/08/28 07:41:29;;;;;;;0.68;0.20;;;21.40;73.00;;;;;;5028776;28;20037;-88
2023/08/28 07:43:54;;;;;;;0.38;0.20;;;21.40;72.90;;;;;;5026501;28;20046;-88
2023/08/28 07:46:20;;;;;;;0.35;0.30;;;21.40;73.60;;;;;;5026744;28;20041;-88
2023/08/28 07:48:45;;;;;;;0.80;0.30;;;21.50;72.80;;;;;;5028086;28;20128;-88
2023/08/28 07:51:11;;;;;;;0.57;0.30;;;21.50;72.80;;;;;;5024949;28;20064;-88
2023/08/28 07:53:37;;;;;;;0.30;0.20;;;21.50;72.80;;;;;;5026586;28;20030;-88
2023/08/28 07:56:03;;;;;;;0.30;0.25;;;21.50;72.80;;;;;;5022766;28;20053;-88
2023/08/28 07:58:29;;;;;;;0.28;0.25;;;21.50;72.80;;;;;;5026447;28;20033;-88
2023/08/28 08:00:56;;;;;;;0.10;0.10;;;21.50;72.80;;;;;;5027727;28;20095;-88
2023/08/28 08:03:22;;;;;;;1.17;0.20;;;21.50;72.90;;;;;;5026949;28;20388;-87
2023/08/28 08:05:47;;;;;;;0.10;0.10;;;21.50;72.80;;;;;;5025337;28;20064;-88
2023/08/28 08:08:13;;;;;;;0.20;0.20;;;21.50;72.80;;;;;;5023181;28;20029;-89
2023/08/28 08:10:38;;;;;;;0.45;0.28;;;21.60;72.80;;;;;;5025038;28;20083;-88
2023/08/28 08:13:04;;;;;;;0.20;0.20;;;21.60;72.90;;;;;;5025301;28;20410;-88
2023/08/28 08:15:31;;;;;;;0.73;0.30;;;21.60;72.90;;;;;;5024807;28;20071;-87
2023/08/28 08:17:57;;;;;;;0.45;0.30;;;21.60;73.10;;;;;;5024999;28;20065;-88
2023/08/28 08:20:22;;;;;;;0.40;0.40;;;21.60;73.10;;;;;;5025986;28;20476;-88
2023/08/28 08:22:48;;;;;;;0.10;0.10;;;21.60;73.20;;;;;;5025814;28;20045;-88
2023/08/28 08:25:14;;;;;;;0.20;0.20;;;21.60;73.20;;;;;;5024889;28;20030;-89
2023/08/28 08:27:39;;;;;;;0.17;0.17;;;21.60;73.20;;;;;;5024896;28;20029;-88
2023/08/28 08:30:07;;;;;;;0.28;0.20;;;21.60;73.40;;;;;;5026155;28;20395;-88
2023/08/28 08:32:32;;;;;;;0.57;0.28;;;21.60;73.30;;;;;;5024932;28;20044;-89
2023/08/28 08:34:59;;;;;;;0.30;0.20;;;21.70;73.50;;;;;;5026067;28;20034;-88
2023/08/28 08:37:26;;;;;;;1.95;0.30;;;21.70;73.40;;;;;;5025434;28;20116;-88
2023/08/28 08:39:52;;;;;;;0.20;0.20;;;21.70;73.50;;;;;;5026737;28;20041;-88
2023/08/28 08:42:17;;;;;;;0.20;0.17;;;21.70;73.60;;;;;;5024787;28;20038;-88
2023/08/28 08:44:43;;;;;;;0.22;0.17;;;21.70;73.70;;;;;;5023108;28;20026;-88
2023/08/28 08:47:09;;;;;;;0.13;0.13;;;21.70;73.60;;;;;;5025422;28;20041;-88
2023/08/28 08:49:35;;;;;;;0.20;0.20;;;21.70;73.60;;;;;;5023695;28;20025;-88
2023/08/28 08:52:02;;;;;;;0.20;0.17;;;21.70;73.70;;;;;;5025623;28;20492;-88
2023/08/28 08:54:34;;;;;;;0.10;0.10;;;21.70;73.50;;;;;;5025250;28;20044;-88
2023/08/28 08:57:00;;;;;;;0.63;0.30;;;21.80;73.60;;;;;;5021205;28;20061;-88
2023/08/28 08:59:26;;;;;;;0.20;0.20;;;21.80;73.60;;;;;;5020960;28;20037;-87
2023/08/28 09:01:52;;;;;;;0.30;0.17;;;21.80;73.80;;;;;;5024762;28;20053;-88
2023/08/28 09:04:18;;;;;;;0.30;0.20;;;21.80;73.50;;;;;;5024121;28;20082;-88
2023/08/28 09:06:44;;;;;;;0.40;0.30;;;21.80;73.50;;;;;;5026467;28;20041;-88
2023/08/28 09:09:11;;;;;;;0.20;0.20;;;21.80;73.50;;;;;;5023868;28;20087;-88
2023/08/28 09:11:37;;;;;;;0.28;0.10;;;21.90;73.40;;;;;;5023352;28;20073;-88
2023/08/28 09:14:04;;;;;;;0.20;0.20;;;21.80;73.50;;;;;;5025599;28;20515;-88
2023/08/28 09:16:30;;;;;;;0.10;0.10;;;21.80;73.30;;;;;;5023182;28;20046;-89
2023/08/28 09:18:56;;;;;;;0.20;0.20;;;21.90;73.60;;;;;;5026077;28;20049;-89
2023/08/28 09:21:21;;;;;;;0.10;0.10;;;21.80;74.00;;;;;;5021188;28;20504;-89
2023/08/28 09:23:50;;;;;;;0.10;0.10;;;21.90;74.10;;;;;;5023472;28;20092;-88
2023/08/28 09:26:19;;;;;;;0.10;0.10;;;21.90;73.90;;;;;;5025897;28;20034;-89
2023/08/28 09:29:00;;;;;;;0.17;0.17;;;21.90;73.70;;;;;;5026317;28;20061;-89
2023/08/28 09:31:30;;;;;;;0.40;0.20;;;21.90;73.10;;;;;;5028145;28;20064;-88
2023/08/28 09:33:55;;;;;;;0.40;0.30;;;21.90;72.80;;;;;;5043438;28;20053;-88
2023/08/28 09:36:21;;;;;;;0.10;0.10;;;21.90;72.80;;;;;;5028843;28;20041;-88
2023/08/28 09:38:46;;;;;;;0.15;0.15;;;22.00;72.70;;;;;;5029323;28;20037;-89
2023/08/28 09:41:12;;;;;;;0.30;0.20;;;22.00;72.50;;;;;;5026641;28;20434;-89
2023/08/28 09:43:38;;;;;;;0.20;0.20;;;22.00;72.40;;;;;;5024325;28;20048;-88
2023/08/28 09:46:04;;;;;;;0.35;0.20;;;22.00;72.40;;;;;;5029274;28;20041;-88
2023/08/28 09:48:33;;;;;;;0.28;0.10;;;22.00;72.50;;;;;;5027441;28;20052;-88
2023/08/28 09:51:06;;;;;;;0.30;0.10;;;22.00;72.50;;;;;;5029370;28;20049;-88
2023/08/28 09:53:32;;;;;;;0.10;0.10;;;22.00;73.10;;;;;;5027279;28;20095;-89
2023/08/28 09:55:58;;;;;;;0.22;0.10;;;22.00;72.90;;;;;;5027745;28;20040;-89
2023/08/28 09:58:24;;;;;;;0.28;0.22;;;22.00;72.60;;;;;;5029394;28;20129;-89
2023/08/28 10:00:51;;;;;;;0.10;0.10;;;22.00;72.50;;;;;;5029971;28;20561;-88
2023/08/28 10:03:16;;;;;;;0.10;0.10;;;22.00;72.40;;;;;;5027992;28;20053;-88
2023/08/28 10:05:43;;;;;;;0.25;0.10;;;22.10;72.40;;;;;;5024842;28;20052;-89
2023/08/28 10:08:10;;;;;;;0.20;0.20;;;22.10;72.50;;;;;;5027521;28;20107;-88
2023/08/28 10:10:36;;;;;;;0.15;0.15;;;22.10;72.50;;;;;;5028136;28;20045;-89
2023/08/28 10:13:06;;;;;;;0.20;0.20;;;22.10;72.60;;;;;;5029676;28;20056;-88
2023/08/28 10:15:33;;;;;;;0.22;0.20;;;22.10;72.50;;;;;;5030136;28;20466;-88
2023/08/28 10:18:00;;;;;;;0.38;0.20;;;22.10;72.50;;;;;;5027091;28;20049;-89
2023/08/28 10:20:28;;;;;;;0.20;0.20;;;22.10;72.50;;;;;;5027609;28;20063;-89
2023/08/28 10:22:54;;;;;;;0.20;0.20;;;22.10;72.50;;;;;;5027371;28;20458;-89
2023/08/28 10:25:19;;;;;;;0.30;0.10;;;22.10;72.50;;;;;;5025822;28;20519;-89
2023/08/28 10:27:45;;;;;;;0.10;0.10;;;22.10;72.60;;;;;;5011320;28;20483;-89
2023/08/28 10:30:11;;;;;;;0.10;0.10;;;22.10;72.60;;;;;;5024805;28;20570;-88
2023/08/28 10:32:37;;;;;;;0.10;0.10;;;22.10;72.40;;;;;;5026055;28;20410;-88
2023/08/28 10:35:02;;;;;;;0.28;0.10;;;22.10;72.40;;;;;;5025535;28;20076;-88
2023/08/28 10:37:28;;;;;;;0.10;0.10;;;22.10;72.40;;;;;;5029684;28;20434;-89
2023/08/28 10:39:57;;;;;;;0.20;0.20;;;22.10;72.30;;;;;;5030068;28;20110;-89
2023/08/28 10:42:23;;;;;;;0.10;0.10;;;22.10;72.40;;;;;;5023188;28;20057;-88
2023/08/28 10:44:49;;;;;;;0.10;0.10;;;22.10;72.40;;;;;;5019101;28;20069;-85
2023/08/28 10:47:18;;;;;;;0.10;0.10;;;22.20;72.60;;;;;;5024340;28;20053;-88
2023/08/28 10:49:44;;;;;;;0.20;0.20;;;22.10;72.30;;;;;;5027970;28;20048;-87
2023/08/28 10:52:09;;;;;;;0.10;0.10;;;22.10;72.40;;;;;;5028279;28;20512;-88
2023/08/28 10:54:39;;;;;;;0.30;0.20;;;22.10;72.20;;;;;;5024880;28;20046;-87
2023/08/28 10:57:10;;;;;;;0.15;0.15;;;22.20;73.00;;;;;;5026690;28;20045;-87
2023/08/28 10:59:45;;;;;;;0.20;0.20;;;22.10;72.20;;;;;;5028183;28;20087;-88
2023/08/28 11:02:10;;;;;;;0.20;0.20;;;22.20;72.30;;;;;;5028406;28;20513;-87
2023/08/28 11:04:37;;;;;;;0.20;0.20;;;22.20;72.30;;;;;;5028054;28;20037;-88
2023/08/28 11:07:04;;;;;;;0.30;0.30;;;22.20;72.30;;;;;;5027006;28;20046;-88
2023/08/28 11:09:29;;;;;;;0.10;0.10;;;22.30;72.20;;;;;;5024738;28;20048;-87
2023/08/28 11:12:18;;;;;;;0.20;0.20;;;22.20;72.20;;;;;;5023412;28;20149;-85
2023/08/28 11:14:52;;;;;;;0.20;0.20;;;22.20;72.40;;;;;;5026212;28;20049;-87
2023/08/28 11:17:19;;;;;;;0.70;0.30;;;22.20;72.20;;;;;;5025423;28;20041;-85
2023/08/28 11:19:53;;;;;;;0.20;0.20;;;22.30;72.10;;;;;;5022491;28;20065;-86
2023/08/28 11:22:38;;;;;;;0.30;0.30;;;22.30;72.20;;;;;;5023160;28;20515;-86
2023/08/28 11:25:07;;;;;;;0.20;0.20;;;22.30;72.10;;;;;;5025512;28;20041;-85
2023/08/28 11:27:46;;;;;;;0.60;0.30;;;22.30;72.10;;;;;;5028184;28;20045;-85
2023/08/28 11:30:13;;;;;;;0.30;0.20;;;22.30;72.20;;;;;;5001269;28;20530;-85
2023/08/28 11:32:40;;;;;;;0.80;0.30;;;22.30;72.30;;;;;;5002789;28;20101;-85
2023/08/28 11:35:08;;;;;;;0.20;0.20;;;22.30;72.20;;;;;;5004854;28;20512;-86
2023/08/28 11:37:35;;;;;;;0.20;0.20;;;22.30;72.20;;;;;;5024310;28;20064;-86
2023/08/28 11:40:05;;;;;;;0.25;0.20;;;22.30;72.10;;;;;;5025994;28;20095;-86
2023/08/28 11:42:30;;;;;;;0.20;0.20;;;22.30;72.10;;;;;;5025809;28;20586;-84
2023/08/28 11:44:56;;;;;;;0.17;0.17;;;22.30;72.20;;;;;;5025085;28;20128;-85
2023/08/28 11:47:28;;;;;;;0.55;0.30;;;22.30;72.20;;;;;;5021520;28;20121;-87
2023/08/28 11:49:54;;;;;;;0.28;0.28;;;22.30;72.10;;;;;;5024994;28;20053;-85
2023/08/28 11:52:23;;;;;;;0.32;0.20;;;22.30;72.10;;;;;;5024521;28;20042;-84
2023/08/28 11:54:49;;;;;;;0.20;0.20;;;22.30;72.70;;;;;;5027221;28;20476;-84
2023/08/28 11:57:18;;;;;;;0.32;0.30;;;22.30;71.90;;;;;;5024496;28;20124;-85
2023/08/28 11:59:44;;;;;;;0.47;0.40;;;22.30;71.80;;;;;;5026940;28;20172;-84
2023/08/28 12:02:13;;;;;;;0.20;0.20;;;22.30;71.70;;;;;;5024389;28;20044;-84
2023/08/28 12:04:42;;;;;;;0.35;0.35;;;22.40;71.60;;;;;;5024173;28;20045;-84
2023/08/28 12:07:26;;;;;;;0.55;0.20;;;22.40;71.60;;;;;;5025684;28;20049;-85
2023/08/28 12:09:52;;;;;;;0.20;0.20;;;22.30;71.60;;;;;;5024197;28;20100;-85
2023/08/28 12:12:18;;;;;;;0.20;0.20;;;22.40;71.60;;;;;;5026528;28;20050;-85
2023/08/28 12:14:44;;;;;;;0.30;0.30;;;22.40;71.50;;;;;;5023956;28;20507;-84
2023/08/28 12:17:17;;;;;;;0.35;0.35;;;22.40;71.50;;;;;;5026862;28;20056;-85
2023/08/28 12:19:42;;;;;;;0.30;0.30;;;22.40;71.40;;;;;;5022692;28;20042;-85
2023/08/28 12:22:10;;;;;;;0.22;0.22;;;22.40;71.40;;;;;;5027135;28;20049;-85
2023/08/28 12:24:43;;;;;;;0.10;0.10;;;22.40;71.40;;;;;;5026915;28;20056;-85
2023/08/28 12:27:11;;;;;;;0.30;0.30;;;22.40;71.40;;;;;;5024829;28;20125;-85
2023/08/28 12:29:43;;;;;;;0.20;0.20;;;22.40;71.30;;;;;;5026185;28;20045;-82
2023/08/28 12:32:14;;;;;;;0.32;0.28;;;22.40;71.20;;;;;;5026035;28;20053;-85
2023/08/28 12:34:40;;;;;;;0.30;0.30;;;22.40;71.30;;;;;;5025632;28;20053;-85
2023/08/28 12:37:07;;;;;;;0.63;0.20;;;22.40;72.00;;;;;;5027049;28;20041;-85
2023/08/28 12:39:33;;;;;;;0.30;0.30;;;22.40;71.20;;;;;;5027248;28;20099;-85
2023/08/28 12:41:59;;;;;;;0.40;0.20;;;22.40;71.20;;;;;;5024312;28;20273;-85